sensor_id;sensor_type;location;lat;lon;timestamp;pressure;altitude;pressure_sealevel;temperature;humidity
69971;BME280;57301;50.328;8.542;2023-01-28T00:00:33;99354.09;;;2.23;81.79
69971;BME280;57301;50.328;8.542;2023-01-28T00:03:00;99359.13;;;2.28;81.90
69971;BME280;57301;50.328;8.542;2023-01-28T00:05:26;99355.66;;;2.10;82.67
69971;BME280;57301;50.328;8.542;2023-01-28T00:07:55;99359.38;;;2.06;82.99
69971;BME280;57301;50.328;8.542;2023-01-28T00:10:23;99356.75;;;2.06;82.96
69971;BME280;57301;50.328;8.542;2023-01-28T00:12:49;99351.47;;;2.06;82.94
69971;BME280;57301;50.328;8.542;2023-01-28T00:15:16;99353.25;;;2.05;83.17
69971;BME280;57301;50.328;8.542;2023-01-28T00:17:42;99357.06;;;2.00;83.26
69971;BME280;57301;50.328;8.542;2023-01-28T00:20:09;99351.78;;;2.00;82.93
69971;BME280;57301;50.328;8.542;2023-01-28T00:22:36;99356.13;;;2.01;82.99
69971;BME280;57301;50.328;8.542;2023-01-28T00:25:02;99364.09;;;1.99;83.19
69971;BME280;57301;50.328;8.542;2023-01-28T00:27:29;99360.13;;;2.08;82.57
69971;BME280;57301;50.328;8.542;2023-01-28T00:29:56;99354.97;;;2.06;82.89
69971;BME280;57301;50.328;8.542;2023-01-28T00:32:22;99357.69;;;2.05;82.53
69971;BME280;57301;50.328;8.542;2023-01-28T00:34:49;99355.28;;;2.00;82.48
69971;BME280;57301;50.328;8.542;2023-01-28T00:37:15;99362.19;;;2.03;82.64
69971;BME280;57301;50.328;8.542;2023-01-28T00:39:42;99360.72;;;1.97;83.47
69971;BME280;57301;50.328;8.542;2023-01-28T00:42:08;99360.00;;;1.94;83.38
69971;BME280;57301;50.328;8.542;2023-01-28T00:44:35;99360.94;;;1.93;83.40
69971;BME280;57301;50.328;8.542;2023-01-28T00:47:02;99359.25;;;1.92;83.56
69971;BME280;57301;50.328;8.542;2023-01-28T00:49:28;99358.16;;;1.78;83.91
69971;BME280;57301;50.328;8.542;2023-01-28T00:51:56;99355.44;;;1.80;83.82
69971;BME280;57301;50.328;8.542;2023-01-28T00:54:22;99350.59;;;1.72;84.37
69971;BME280;57301;50.328;8.542;2023-01-28T00:56:49;99357.06;;;1.82;84.07
69971;BME280;57301;50.328;8.542;2023-01-28T00:59:15;99348.09;;;1.86;83.62
69971;BME280;57301;50.328;8.542;2023-01-28T01:01:42;99343.69;;;1.87;83.71
69971;BME280;57301;50.328;8.542;2023-01-28T01:04:09;99351.88;;;1.81;83.33
69971;BME280;57301;50.328;8.542;2023-01-28T01:06:38;99345.00;;;1.61;84.11
69971;BME280;57301;50.328;8.542;2023-01-28T01:09:09;99346.00;;;1.76;83.81
69971;BME280;57301;50.328;8.542;2023-01-28T01:11:36;99340.38;;;1.66;83.94
69971;BME280;57301;50.328;8.542;2023-01-28T01:14:03;99342.00;;;1.69;83.96
69971;BME280;57301;50.328;8.542;2023-01-28T01:16:32;99337.66;;;1.68;84.13
69971;BME280;57301;50.328;8.542;2023-01-28T01:19:00;99339.75;;;1.61;84.33
69971;BME280;57301;50.328;8.542;2023-01-28T01:21:28;99343.78;;;1.68;84.22
69971;BME280;57301;50.328;8.542;2023-01-28T01:23:55;99348.84;;;1.71;83.98
69971;BME280;57301;50.328;8.542;2023-01-28T01:26:22;99352.94;;;1.59;83.98
69971;BME280;57301;50.328;8.542;2023-01-28T01:28:50;99350.28;;;1.61;84.03
69971;BME280;57301;50.328;8.542;2023-01-28T01:31:19;99350.63;;;1.53;84.71
69971;BME280;57301;50.328;8.542;2023-01-28T01:33:48;99353.50;;;1.49;84.92
69971;BME280;57301;50.328;8.542;2023-01-28T01:36:16;99348.78;;;1.55;84.32
69971;BME280;57301;50.328;8.542;2023-01-28T01:38:45;99334.84;;;1.53;84.21
69971;BME280;57301;50.328;8.542;2023-01-28T01:41:29;99341.91;;;1.36;84.83
69971;BME280;57301;50.328;8.542;2023-01-28T01:43:58;99345.81;;;1.27;85.11
69971;BME280;57301;50.328;8.542;2023-01-28T01:46:37;99356.66;;;1.38;84.66
69971;BME280;57301;50.328;8.542;2023-01-28T01:49:21;99355.63;;;1.41;84.89
69971;BME280;57301;50.328;8.542;2023-01-28T01:51:52;99362.88;;;1.54;83.98
69971;BME280;57301;50.328;8.542;2023-01-28T01:54:22;99367.88;;;1.42;84.42
69971;BME280;57301;50.328;8.542;2023-01-28T01:56:51;99375.81;;;1.40;84.46
69971;BME280;57301;50.328;8.542;2023-01-28T01:59:23;99372.59;;;1.52;84.10
69971;BME280;57301;50.328;8.542;2023-01-28T02:01:51;99375.50;;;1.46;84.35
69971;BME280;57301;50.328;8.542;2023-01-28T02:04:25;99377.16;;;1.49;84.68
69971;BME280;57301;50.328;8.542;2023-01-28T02:06:52;99379.63;;;1.52;84.53
69971;BME280;57301;50.328;8.542;2023-01-28T02:09:25;99381.88;;;1.59;84.16
69971;BME280;57301;50.328;8.542;2023-01-28T02:11:58;99387.91;;;1.61;83.48
69971;BME280;57301;50.328;8.542;2023-01-28T02:14:29;99382.34;;;1.50;84.33
69971;BME280;57301;50.328;8.542;2023-01-28T02:16:59;99367.50;;;1.67;83.72
69971;BME280;57301;50.328;8.542;2023-01-28T02:19:41;99382.13;;;1.72;83.50
69971;BME280;57301;50.328;8.542;2023-01-28T02:27:48;99380.66;;;1.67;83.61
69971;BME280;57301;50.328;8.542;2023-01-28T02:30:21;99374.28;;;1.53;84.38
69971;BME280;57301;50.328;8.542;2023-01-28T02:32:55;99386.75;;;1.67;83.55
69971;BME280;57301;50.328;8.542;2023-01-28T02:35:31;99377.41;;;1.61;83.67
69971;BME280;57301;50.328;8.542;2023-01-28T02:40:36;99385.06;;;1.66;83.26
69971;BME280;57301;50.328;8.542;2023-01-28T02:46:16;99388.47;;;1.68;83.32
69971;BME280;57301;50.328;8.542;2023-01-28T02:49:06;99396.97;;;1.73;83.16
69971;BME280;57301;50.328;8.542;2023-01-28T02:52:00;99395.97;;;1.76;82.74
69971;BME280;57301;50.328;8.542;2023-01-28T02:54:41;99403.47;;;1.66;82.91
69971;BME280;57301;50.328;8.542;2023-01-28T02:57:23;99408.34;;;1.74;82.56
69971;BME280;57301;50.328;8.542;2023-01-28T03:00:09;99398.28;;;1.82;82.46
69971;BME280;57301;50.328;8.542;2023-01-28T03:02:45;99396.41;;;1.84;82.16
69971;BME280;57301;50.328;8.542;2023-01-28T03:05:27;99401.94;;;1.79;82.55
69971;BME280;57301;50.328;8.542;2023-01-28T03:07:56;99402.47;;;1.86;82.10
69971;BME280;57301;50.328;8.542;2023-01-28T03:10:25;99400.34;;;1.58;82.62
69971;BME280;57301;50.328;8.542;2023-01-28T03:12:55;99407.03;;;1.82;82.54
69971;BME280;57301;50.328;8.542;2023-01-28T03:15:47;99409.50;;;1.68;82.56
69971;BME280;57301;50.328;8.542;2023-01-28T03:18:40;99412.34;;;1.64;82.64
69971;BME280;57301;50.328;8.542;2023-01-28T03:21:32;99418.66;;;1.59;82.52
69971;BME280;57301;50.328;8.542;2023-01-28T03:24:30;99413.41;;;1.59;82.65
69971;BME280;57301;50.328;8.542;2023-01-28T03:27:20;99412.56;;;1.59;82.97
69971;BME280;57301;50.328;8.542;2023-01-28T03:30:22;99422.47;;;1.71;82.61
69971;BME280;57301;50.328;8.542;2023-01-28T03:33:10;99427.81;;;1.70;82.62
69971;BME280;57301;50.328;8.542;2023-01-28T03:35:56;99422.78;;;1.65;82.35
69971;BME280;57301;50.328;8.542;2023-01-28T03:38:41;99427.25;;;1.63;82.54
69971;BME280;57301;50.328;8.542;2023-01-28T03:41:09;99428.19;;;1.62;82.26
69971;BME280;57301;50.328;8.542;2023-01-28T03:43:40;99432.69;;;1.60;82.40
69971;BME280;57301;50.328;8.542;2023-01-28T03:46:07;99434.09;;;1.67;82.12
69971;BME280;57301;50.328;8.542;2023-01-28T03:48:34;99431.13;;;1.56;82.46
69971;BME280;57301;50.328;8.542;2023-01-28T03:51:00;99436.38;;;1.56;82.47
69971;BME280;57301;50.328;8.542;2023-01-28T03:53:27;99429.25;;;1.58;82.61
69971;BME280;57301;50.328;8.542;2023-01-28T03:55:54;99430.97;;;1.59;82.55
69971;BME280;57301;50.328;8.542;2023-01-28T03:58:23;99433.59;;;1.59;81.22
69971;BME280;57301;50.328;8.542;2023-01-28T04:01:05;99436.03;;;1.45;82.90
69971;BME280;57301;50.328;8.542;2023-01-28T04:03:31;99430.81;;;1.62;81.57
69971;BME280;57301;50.328;8.542;2023-01-28T04:06:04;99428.03;;;1.65;81.16
69971;BME280;57301;50.328;8.542;2023-01-28T04:08:30;99427.19;;;1.65;80.73
69971;BME280;57301;50.328;8.542;2023-01-28T04:10:57;99424.81;;;1.60;80.62
69971;BME280;57301;50.328;8.542;2023-01-28T04:13:24;99423.78;;;1.63;81.18
69971;BME280;57301;50.328;8.542;2023-01-28T04:15:50;99425.41;;;1.65;81.08
69971;BME280;57301;50.328;8.542;2023-01-28T04:18:17;99422.84;;;1.64;80.84
69971;BME280;57301;50.328;8.542;2023-01-28T04:20:47;99433.13;;;1.51;81.43
69971;BME280;57301;50.328;8.542;2023-01-28T04:23:13;99432.81;;;1.57;81.39
69971;BME280;57301;50.328;8.542;2023-01-28T04:25:40;99428.41;;;1.57;81.59
69971;BME280;57301;50.328;8.542;2023-01-28T04:28:06;99429.75;;;1.66;80.60
69971;BME280;57301;50.328;8.542;2023-01-28T04:30:33;99430.28;;;1.55;80.77
69971;BME280;57301;50.328;8.542;2023-01-28T04:32:59;99428.50;;;1.56;80.90
69971;BME280;57301;50.328;8.542;2023-01-28T04:35:25;99438.00;;;1.58;80.88
69971;BME280;57301;50.328;8.542;2023-01-28T04:37:52;99433.88;;;1.53;80.93
69971;BME280;57301;50.328;8.542;2023-01-28T04:40:18;99429.25;;;1.58;80.80
69971;BME280;57301;50.328;8.542;2023-01-28T04:42:52;99426.34;;;1.64;80.84
69971;BME280;57301;50.328;8.542;2023-01-28T04:45:19;99431.34;;;1.51;80.67
69971;BME280;57301;50.328;8.542;2023-01-28T04:47:45;99431.75;;;1.61;80.13
69971;BME280;57301;50.328;8.542;2023-01-28T04:50:12;99434.81;;;1.52;80.63
69971;BME280;57301;50.328;8.542;2023-01-28T04:52:39;99436.50;;;1.53;80.84
69971;BME280;57301;50.328;8.542;2023-01-28T04:55:06;99445.31;;;1.52;80.69
69971;BME280;57301;50.328;8.542;2023-01-28T04:57:32;99445.25;;;1.53;80.82
69971;BME280;57301;50.328;8.542;2023-01-28T04:59:59;99448.31;;;1.44;81.06
69971;BME280;57301;50.328;8.542;2023-01-28T05:02:26;99451.72;;;1.46;80.90
69971;BME280;57301;50.328;8.542;2023-01-28T05:04:52;99447.94;;;1.52;80.39
69971;BME280;57301;50.328;8.542;2023-01-28T05:07:19;99449.53;;;1.56;80.44
69971;BME280;57301;50.328;8.542;2023-01-28T05:09:45;99441.28;;;1.45;81.64
69971;BME280;57301;50.328;8.542;2023-01-28T05:12:12;99445.13;;;1.56;81.13
69971;BME280;57301;50.328;8.542;2023-01-28T05:14:38;99442.09;;;1.64;80.26
69971;BME280;57301;50.328;8.542;2023-01-28T05:17:05;99446.34;;;1.49;81.19
69971;BME280;57301;50.328;8.542;2023-01-28T05:19:31;99446.97;;;1.54;81.06
69971;BME280;57301;50.328;8.542;2023-01-28T05:21:58;99449.19;;;1.45;81.56
69971;BME280;57301;50.328;8.542;2023-01-28T05:24:24;99449.06;;;1.65;80.36
69971;BME280;57301;50.328;8.542;2023-01-28T05:26:51;99449.44;;;1.57;80.29
69971;BME280;57301;50.328;8.542;2023-01-28T05:29:17;99453.22;;;1.52;80.52
69971;BME280;57301;50.328;8.542;2023-01-28T05:31:43;99462.03;;;1.51;80.39
69971;BME280;57301;50.328;8.542;2023-01-28T05:34:10;99463.59;;;1.55;80.34
69971;BME280;57301;50.328;8.542;2023-01-28T05:36:36;99462.53;;;1.40;80.62
69971;BME280;57301;50.328;8.542;2023-01-28T05:39:03;99466.84;;;1.41;81.12
69971;BME280;57301;50.328;8.542;2023-01-28T05:41:29;99470.28;;;1.43;81.24
69971;BME280;57301;50.328;8.542;2023-01-28T05:43:56;99478.16;;;1.43;80.84
69971;BME280;57301;50.328;8.542;2023-01-28T05:46:22;99470.84;;;1.50;80.40
69971;BME280;57301;50.328;8.542;2023-01-28T05:48:50;99460.19;;;1.34;80.87
69971;BME280;57301;50.328;8.542;2023-01-28T05:51:17;99452.19;;;1.37;80.36
69971;BME280;57301;50.328;8.542;2023-01-28T05:53:43;99459.22;;;1.37;80.06
69971;BME280;57301;50.328;8.542;2023-01-28T05:56:10;99460.06;;;1.37;80.27
69971;BME280;57301;50.328;8.542;2023-01-28T05:58:36;99471.13;;;1.44;80.36
69971;BME280;57301;50.328;8.542;2023-01-28T06:01:03;99467.66;;;1.43;80.00
69971;BME280;57301;50.328;8.542;2023-01-28T06:03:29;99483.16;;;1.30;80.98
69971;BME280;57301;50.328;8.542;2023-01-28T06:05:56;99482.22;;;1.31;81.00
69971;BME280;57301;50.328;8.542;2023-01-28T06:08:22;99484.84;;;1.31;81.24
69971;BME280;57301;50.328;8.542;2023-01-28T06:10:49;99484.19;;;1.45;80.40
69971;BME280;57301;50.328;8.542;2023-01-28T06:13:15;99494.50;;;1.50;80.23
69971;BME280;57301;50.328;8.542;2023-01-28T06:15:41;99497.81;;;1.53;80.09
69971;BME280;57301;50.328;8.542;2023-01-28T06:18:08;99499.31;;;1.59;79.49
69971;BME280;57301;50.328;8.542;2023-01-28T06:20:34;99504.16;;;1.49;80.19
69971;BME280;57301;50.328;8.542;2023-01-28T06:23:01;99507.63;;;1.50;80.47
69971;BME280;57301;50.328;8.542;2023-01-28T06:25:27;99501.81;;;1.43;80.36
69971;BME280;57301;50.328;8.542;2023-01-28T06:27:54;99503.72;;;1.40;80.53
69971;BME280;57301;50.328;8.542;2023-01-28T06:30:20;99504.00;;;1.52;79.97
69971;BME280;57301;50.328;8.542;2023-01-28T06:32:52;99499.41;;;1.39;80.08
69971;BME280;57301;50.328;8.542;2023-01-28T06:35:18;99500.69;;;1.30;80.27
69971;BME280;57301;50.328;8.542;2023-01-28T06:37:45;99505.88;;;1.31;80.68
69971;BME280;57301;50.328;8.542;2023-01-28T06:40:11;99502.66;;;1.25;80.56
69971;BME280;57301;50.328;8.542;2023-01-28T06:42:39;99510.00;;;1.37;80.64
69971;BME280;57301;50.328;8.542;2023-01-28T06:45:05;99514.09;;;1.24;80.73
69971;BME280;57301;50.328;8.542;2023-01-28T06:47:32;99512.16;;;1.27;80.58
69971;BME280;57301;50.328;8.542;2023-01-28T06:49:59;99518.00;;;1.34;79.83
69971;BME280;57301;50.328;8.542;2023-01-28T06:52:25;99516.16;;;1.36;80.07
69971;BME280;57301;50.328;8.542;2023-01-28T06:54:52;99520.56;;;1.36;79.91
69971;BME280;57301;50.328;8.542;2023-01-28T06:57:18;99518.34;;;1.26;80.56
69971;BME280;57301;50.328;8.542;2023-01-28T06:59:44;99519.00;;;1.31;80.21
69971;BME280;57301;50.328;8.542;2023-01-28T07:02:11;99516.84;;;1.21;80.10
69971;BME280;57301;50.328;8.542;2023-01-28T07:04:38;99528.66;;;1.31;79.46
69971;BME280;57301;50.328;8.542;2023-01-28T07:07:05;99530.84;;;1.21;80.05
69971;BME280;57301;50.328;8.542;2023-01-28T07:09:32;99530.63;;;1.26;79.89
69971;BME280;57301;50.328;8.542;2023-01-28T07:11:59;99530.72;;;1.24;79.60
69971;BME280;57301;50.328;8.542;2023-01-28T07:14:25;99531.38;;;1.29;79.44
69971;BME280;57301;50.328;8.542;2023-01-28T07:16:52;99534.88;;;1.28;79.40
69971;BME280;57301;50.328;8.542;2023-01-28T07:19:18;99536.94;;;1.22;78.96
69971;BME280;57301;50.328;8.542;2023-01-28T07:21:45;99540.66;;;1.37;78.42
69971;BME280;57301;50.328;8.542;2023-01-28T07:24:12;99542.56;;;1.33;78.59
69971;BME280;57301;50.328;8.542;2023-01-28T07:26:38;99544.63;;;1.26;77.92
69971;BME280;57301;50.328;8.542;2023-01-28T07:29:04;99542.72;;;1.30;77.89
69971;BME280;57301;50.328;8.542;2023-01-28T07:31:31;99545.94;;;1.16;78.84
69971;BME280;57301;50.328;8.542;2023-01-28T07:33:58;99543.00;;;1.24;78.88
69971;BME280;57301;50.328;8.542;2023-01-28T07:36:24;99548.75;;;1.32;78.38
69971;BME280;57301;50.328;8.542;2023-01-28T07:38:50;99551.22;;;1.35;77.98
69971;BME280;57301;50.328;8.542;2023-01-28T07:41:17;99554.16;;;1.29;78.37
69971;BME280;57301;50.328;8.542;2023-01-28T07:43:44;99544.56;;;1.28;78.13
69971;BME280;57301;50.328;8.542;2023-01-28T07:46:10;99551.38;;;1.32;78.06
69971;BME280;57301;50.328;8.542;2023-01-28T07:48:37;99548.91;;;1.29;78.60
69971;BME280;57301;50.328;8.542;2023-01-28T07:51:03;99560.59;;;1.41;78.00
69971;BME280;57301;50.328;8.542;2023-01-28T07:53:30;99560.84;;;1.36;77.19
69971;BME280;57301;50.328;8.542;2023-01-28T07:55:59;99561.44;;;1.41;76.93
69971;BME280;57301;50.328;8.542;2023-01-28T07:58:26;99557.47;;;1.32;77.17
69971;BME280;57301;50.328;8.542;2023-01-28T08:00:56;99560.56;;;1.42;76.65
69971;BME280;57301;50.328;8.542;2023-01-28T08:03:24;99567.78;;;1.37;77.11
69971;BME280;57301;50.328;8.542;2023-01-28T08:05:52;99566.22;;;1.33;77.80
69971;BME280;57301;50.328;8.542;2023-01-28T08:08:18;99561.69;;;1.37;77.35
69971;BME280;57301;50.328;8.542;2023-01-28T08:10:45;99570.50;;;1.36;76.82
69971;BME280;57301;50.328;8.542;2023-01-28T08:13:13;99575.09;;;1.30;75.97
69971;BME280;57301;50.328;8.542;2023-01-28T08:15:40;99569.78;;;1.32;75.69
69971;BME280;57301;50.328;8.542;2023-01-28T08:18:08;99568.16;;;1.29;75.98
69971;BME280;57301;50.328;8.542;2023-01-28T08:20:35;99568.47;;;1.22;75.73
69971;BME280;57301;50.328;8.542;2023-01-28T08:23:06;99574.56;;;1.22;75.87
69971;BME280;57301;50.328;8.542;2023-01-28T08:25:32;99571.94;;;1.22;75.45
69971;BME280;57301;50.328;8.542;2023-01-28T08:27:59;99564.59;;;1.30;74.86
69971;BME280;57301;50.328;8.542;2023-01-28T08:30:26;99573.13;;;1.36;74.55
69971;BME280;57301;50.328;8.542;2023-01-28T08:32:55;99576.34;;;1.22;74.96
69971;BME280;57301;50.328;8.542;2023-01-28T08:35:26;99577.44;;;1.18;74.81
69971;BME280;57301;50.328;8.542;2023-01-28T08:37:53;99571.53;;;1.13;75.39
69971;BME280;57301;50.328;8.542;2023-01-28T08:40:20;99571.06;;;1.23;75.15
69971;BME280;57301;50.328;8.542;2023-01-28T08:42:48;99582.63;;;1.38;75.27
69971;BME280;57301;50.328;8.542;2023-01-28T08:45:16;99583.13;;;1.46;74.94
69971;BME280;57301;50.328;8.542;2023-01-28T08:47:53;99587.25;;;1.52;74.40
69971;BME280;57301;50.328;8.542;2023-01-28T08:50:22;99586.59;;;1.28;74.76
69971;BME280;57301;50.328;8.542;2023-01-28T08:52:54;99586.31;;;1.53;73.92
69971;BME280;57301;50.328;8.542;2023-01-28T08:55:21;99591.47;;;1.56;74.36
69971;BME280;57301;50.328;8.542;2023-01-28T08:57:48;99589.47;;;1.61;73.74
69971;BME280;57301;50.328;8.542;2023-01-28T09:00:14;99589.97;;;1.69;73.52
69971;BME280;57301;50.328;8.542;2023-01-28T09:02:41;99578.72;;;1.66;73.00
69971;BME280;57301;50.328;8.542;2023-01-28T09:05:08;99597.66;;;1.74;72.13
69971;BME280;57301;50.328;8.542;2023-01-28T09:07:36;99588.25;;;1.68;72.64
69971;BME280;57301;50.328;8.542;2023-01-28T09:10:04;99594.56;;;1.64;72.54
69971;BME280;57301;50.328;8.542;2023-01-28T09:12:31;99593.16;;;1.57;72.97
69971;BME280;57301;50.328;8.542;2023-01-28T09:14:58;99587.91;;;1.76;72.15
69971;BME280;57301;50.328;8.542;2023-01-28T09:17:24;99595.88;;;1.74;72.18
69971;BME280;57301;50.328;8.542;2023-01-28T09:19:51;99604.97;;;1.67;72.06
69971;BME280;57301;50.328;8.542;2023-01-28T09:22:18;99594.84;;;1.58;72.70
69971;BME280;57301;50.328;8.542;2023-01-28T09:24:44;99595.31;;;1.68;72.32
69971;BME280;57301;50.328;8.542;2023-01-28T09:27:11;99601.63;;;1.64;72.89
69971;BME280;57301;50.328;8.542;2023-01-28T09:29:37;99605.38;;;1.58;72.92
69971;BME280;57301;50.328;8.542;2023-01-28T09:32:05;99601.13;;;1.55;73.37
69971;BME280;57301;50.328;8.542;2023-01-28T09:34:34;99605.75;;;1.69;72.90
69971;BME280;57301;50.328;8.542;2023-01-28T09:37:01;99621.22;;;1.75;72.82
69971;BME280;57301;50.328;8.542;2023-01-28T09:39:27;99612.50;;;1.56;73.08
69971;BME280;57301;50.328;8.542;2023-01-28T09:44:49;99618.31;;;1.63;72.60
69971;BME280;57301;50.328;8.542;2023-01-28T09:47:36;99621.06;;;1.59;72.81
69971;BME280;57301;50.328;8.542;2023-01-28T09:50:08;99627.34;;;1.57;72.91
69971;BME280;57301;50.328;8.542;2023-01-28T09:52:38;99626.94;;;1.66;72.44
69971;BME280;57301;50.328;8.542;2023-01-28T09:55:18;99629.28;;;1.72;72.65
69971;BME280;57301;50.328;8.542;2023-01-28T09:57:52;99635.09;;;1.79;72.35
69971;BME280;57301;50.328;8.542;2023-01-28T10:00:22;99630.06;;;1.74;73.25
69971;BME280;57301;50.328;8.542;2023-01-28T10:02:53;99638.06;;;1.71;72.54
69971;BME280;57301;50.328;8.542;2023-01-28T10:05:38;99646.47;;;1.60;72.86
69971;BME280;57301;50.328;8.542;2023-01-28T10:14:00;99648.66;;;1.70;71.02
69971;BME280;57301;50.328;8.542;2023-01-28T10:16:39;99648.81;;;1.67;71.98
69971;BME280;57301;50.328;8.542;2023-01-28T10:21:50;99646.47;;;1.79;70.99
69971;BME280;57301;50.328;8.542;2023-01-28T10:24:28;99642.06;;;1.61;72.23
69971;BME280;57301;50.328;8.542;2023-01-28T10:26:57;99643.75;;;1.62;72.00
69971;BME280;57301;50.328;8.542;2023-01-28T10:29:30;99645.47;;;1.82;71.17
69971;BME280;57301;50.328;8.542;2023-01-28T10:32:04;99643.56;;;1.85;70.99
69971;BME280;57301;50.328;8.542;2023-01-28T10:34:31;99643.88;;;1.78;70.54
69971;BME280;57301;50.328;8.542;2023-01-28T10:36:58;99643.28;;;1.92;70.35
69971;BME280;57301;50.328;8.542;2023-01-28T10:39:25;99653.06;;;1.88;70.25
69971;BME280;57301;50.328;8.542;2023-01-28T10:41:52;99652.22;;;1.87;70.97
69971;BME280;57301;50.328;8.542;2023-01-28T10:44:37;99641.78;;;2.05;69.23
69971;BME280;57301;50.328;8.542;2023-01-28T10:47:14;99649.09;;;1.98;70.71
69971;BME280;57301;50.328;8.542;2023-01-28T10:49:50;99652.31;;;2.05;70.07
69971;BME280;57301;50.328;8.542;2023-01-28T10:52:18;99652.88;;;2.11;69.89
69971;BME280;57301;50.328;8.542;2023-01-28T10:54:45;99648.38;;;2.13;68.63
69971;BME280;57301;50.328;8.542;2023-01-28T10:57:15;99644.03;;;2.12;68.26
69971;BME280;57301;50.328;8.542;2023-01-28T10:59:42;99649.88;;;2.00;68.38
69971;BME280;57301;50.328;8.542;2023-01-28T11:02:35;99642.84;;;2.01;68.30
69971;BME280;57301;50.328;8.542;2023-01-28T11:05:16;99646.88;;;2.08;68.50
69971;BME280;57301;50.328;8.542;2023-01-28T11:07:43;99652.22;;;2.06;69.43
69971;BME280;57301;50.328;8.542;2023-01-28T11:12:56;99655.19;;;2.18;68.17
69971;BME280;57301;50.328;8.542;2023-01-28T11:15:22;99649.59;;;2.06;67.52
69971;BME280;57301;50.328;8.542;2023-01-28T11:18:02;99641.13;;;2.00;67.93
69971;BME280;57301;50.328;8.542;2023-01-28T11:20:37;99635.44;;;1.90;68.16
69971;BME280;57301;50.328;8.542;2023-01-28T11:23:05;99641.06;;;2.01;67.81
69971;BME280;57301;50.328;8.542;2023-01-28T11:25:34;99633.25;;;2.00;68.94
69971;BME280;57301;50.328;8.542;2023-01-28T11:28:13;99629.91;;;2.15;68.02
69971;BME280;57301;50.328;8.542;2023-01-28T11:30:40;99627.38;;;2.31;67.73
69971;BME280;57301;50.328;8.542;2023-01-28T11:33:31;99630.25;;;2.43;67.91
69971;BME280;57301;50.328;8.542;2023-01-28T11:38:33;99642.03;;;2.36;65.71
69971;BME280;57301;50.328;8.542;2023-01-28T11:41:00;99630.72;;;2.34;67.13
69971;BME280;57301;50.328;8.542;2023-01-28T11:43:29;99624.63;;;2.51;66.21
69971;BME280;57301;50.328;8.542;2023-01-28T11:45:59;99636.03;;;2.15;66.93
69971;BME280;57301;50.328;8.542;2023-01-28T11:51:11;99629.78;;;2.35;65.39
69971;BME280;57301;50.328;8.542;2023-01-28T11:54:04;99623.75;;;2.33;65.05
69971;BME280;57301;50.328;8.542;2023-01-28T11:59:40;99630.84;;;2.31;64.83
69971;BME280;57301;50.328;8.542;2023-01-28T12:29:18;99597.78;;;2.79;61.22
69971;BME280;57301;50.328;8.542;2023-01-28T12:34:41;99595.91;;;2.47;62.39
69971;BME280;57301;50.328;8.542;2023-01-28T12:42:47;99593.06;;;2.15;63.18
69971;BME280;57301;50.328;8.542;2023-01-28T12:45:22;99592.59;;;2.24;63.59
69971;BME280;57301;50.328;8.542;2023-01-28T12:47:54;99589.06;;;2.42;63.44
69971;BME280;57301;50.328;8.542;2023-01-28T12:50:30;99589.00;;;2.44;62.58
69971;BME280;57301;50.328;8.542;2023-01-28T12:53:24;99590.69;;;2.45;63.25
69971;BME280;57301;50.328;8.542;2023-01-28T12:56:10;99596.22;;;2.58;63.35
69971;BME280;57301;50.328;8.542;2023-01-28T12:58:50;99593.56;;;2.40;64.43
69971;BME280;57301;50.328;8.542;2023-01-28T13:01:43;99596.25;;;2.39;63.84
69971;BME280;57301;50.328;8.542;2023-01-28T13:04:20;99600.53;;;2.05;65.03
69971;BME280;57301;50.328;8.542;2023-01-28T13:06:57;99611.31;;;2.18;64.49
69971;BME280;57301;50.328;8.542;2023-01-28T13:09:25;99596.31;;;2.20;65.04
69971;BME280;57301;50.328;8.542;2023-01-28T13:11:56;99605.03;;;2.39;64.17
69971;BME280;57301;50.328;8.542;2023-01-28T13:14:28;99610.47;;;2.18;64.93
69971;BME280;57301;50.328;8.542;2023-01-28T13:16:55;99602.59;;;1.99;65.15
69971;BME280;57301;50.328;8.542;2023-01-28T13:19:24;99613.25;;;1.96;65.73
69971;BME280;57301;50.328;8.542;2023-01-28T13:22:34;99612.69;;;1.89;65.15
69971;BME280;57301;50.328;8.542;2023-01-28T13:25:26;99616.53;;;2.01;64.39
69971;BME280;57301;50.328;8.542;2023-01-28T13:27:58;99621.16;;;1.96;64.63
69971;BME280;57301;50.328;8.542;2023-01-28T13:30:30;99622.38;;;1.88;64.50
69971;BME280;57301;50.328;8.542;2023-01-28T13:33:05;99618.19;;;1.84;63.86
69971;BME280;57301;50.328;8.542;2023-01-28T13:35:35;99620.81;;;1.84;64.19
69971;BME280;57301;50.328;8.542;2023-01-28T13:38:15;99620.94;;;1.81;63.72
69971;BME280;57301;50.328;8.542;2023-01-28T13:40:51;99611.44;;;1.98;63.59
69971;BME280;57301;50.328;8.542;2023-01-28T13:43:39;99612.41;;;1.76;64.52
69971;BME280;57301;50.328;8.542;2023-01-28T13:46:12;99619.09;;;2.02;62.52
69971;BME280;57301;50.328;8.542;2023-01-28T13:48:54;99626.19;;;2.00;63.23
69971;BME280;57301;50.328;8.542;2023-01-28T13:51:32;99624.72;;;1.95;63.37
69971;BME280;57301;50.328;8.542;2023-01-28T13:54:18;99628.44;;;1.91;63.14
69971;BME280;57301;50.328;8.542;2023-01-28T14:10:47;99632.53;;;2.15;63.53
69971;BME280;57301;50.328;8.542;2023-01-28T14:18:38;99642.00;;;1.81;62.95
69971;BME280;57301;50.328;8.542;2023-01-28T14:21:11;99639.78;;;1.72;62.83
69971;BME280;57301;50.328;8.542;2023-01-28T14:23:47;99643.88;;;1.59;64.03
69971;BME280;57301;50.328;8.542;2023-01-28T14:31:45;99625.56;;;1.76;62.74
69971;BME280;57301;50.328;8.542;2023-01-28T14:36:43;99618.47;;;1.78;62.38
69971;BME280;57301;50.328;8.542;2023-01-28T14:39:19;99614.84;;;1.81;62.49
69971;BME280;57301;50.328;8.542;2023-01-28T14:41:48;99613.34;;;1.56;63.15
69971;BME280;57301;50.328;8.542;2023-01-28T14:44:42;99608.06;;;1.94;61.89
69971;BME280;57301;50.328;8.542;2023-01-28T14:52:48;99615.59;;;2.02;61.42
69971;BME280;57301;50.328;8.542;2023-01-28T14:58:16;99607.66;;;2.03;62.00
69971;BME280;57301;50.328;8.542;2023-01-28T15:00:56;99614.28;;;1.93;62.70
69971;BME280;57301;50.328;8.542;2023-01-28T15:03:25;99616.47;;;1.83;62.58
69971;BME280;57301;50.328;8.542;2023-01-28T15:06:14;99613.28;;;1.77;63.83
69971;BME280;57301;50.328;8.542;2023-01-28T15:08:41;99606.88;;;1.82;62.65
69971;BME280;57301;50.328;8.542;2023-01-28T15:11:12;99595.94;;;1.73;63.00
69971;BME280;57301;50.328;8.542;2023-01-28T15:13:42;99604.59;;;1.75;62.24